UTP weather

U-Tapao International Airport
Rayong, Rayong Province, Thailand

Public forecast

Using degrees Celsius for public forecast. Weather courtesy of forecast.io.

Current aviation weather report (METAR) for U-Tapao International Airport

Retrieved 2020/06/02 20:30 UTC (30 minutes ago):

VTBU 022030Z VRB02KT 9999 FEW020 27/24 Q1008 NOSIG

Aviation forecast (TAF) for U-Tapao International Airport

Forecast is more than 6 hours old.

Retrieved 2020/06/02 12:36 UTC (8 hours ago):

TAF VTBU 021100Z 0212/0312 21008KT 9999 FEW020 SCT100 TEMPO 0221/0302 VRB12KT 6000 -TSRA FEW018CB SCT030 BKN100 TEMPO 0308/0312 VRB14KT 6000 -TSRA FEW018CB SCT030 BKN100